createdAt,value
2023-02-23T00:01:56.437Z,9.20
2023-02-23T00:04:25.136Z,9.20
2023-02-23T00:06:53.624Z,9.20
2023-02-23T00:09:28.051Z,9.20
2023-02-23T00:11:58.084Z,9.20
2023-02-23T00:14:31.309Z,9.20
2023-02-23T00:17:00.200Z,9.20
2023-02-23T00:19:27.273Z,9.20
2023-02-23T00:21:54.906Z,9.20
2023-02-23T00:24:23.384Z,9.20
2023-02-23T00:26:51.542Z,9.20
2023-02-23T00:29:21.450Z,9.20
2023-02-23T00:31:49.916Z,9.20
2023-02-23T00:34:23.760Z,9.20
2023-02-23T00:36:55.729Z,9.20
2023-02-23T00:39:29.424Z,9.20
2023-02-23T00:42:02.856Z,9.20
2023-02-23T00:44:30.701Z,9.20
2023-02-23T00:46:57.672Z,9.20
2023-02-23T00:49:24.768Z,9.20
2023-02-23T00:51:54.837Z,9.20
2023-02-23T00:54:22.322Z,9.20
2023-02-23T00:56:49.916Z,9.20
2023-02-23T00:59:17.058Z,9.20
2023-02-23T01:01:45.212Z,9.10
2023-02-23T01:04:13.666Z,9.10
2023-02-23T01:06:42.696Z,9.10
2023-02-23T01:09:16.929Z,9.20
2023-02-23T01:11:47.038Z,9.10
2023-02-23T01:14:14.051Z,9.20
2023-02-23T01:16:41.338Z,9.20
2023-02-23T01:19:08.648Z,9.20
2023-02-23T01:21:42.422Z,9.20
2023-02-23T01:24:10.615Z,9.20
2023-02-23T01:26:44.133Z,9.20
2023-02-23T01:29:17.370Z,9.20
2023-02-23T01:31:46.615Z,9.20
2023-02-23T01:34:15.267Z,9.20
2023-02-23T01:36:43.918Z,9.20
2023-02-23T01:39:17.216Z,9.20
2023-02-23T01:41:45.377Z,9.10
2023-02-23T01:44:15.330Z,9.20
2023-02-23T01:46:45.514Z,9.20
2023-02-23T01:49:21.674Z,9.10
2023-02-23T01:52:13.382Z,9.20
2023-02-23T01:54:51.475Z,9.20
2023-02-23T01:57:22.285Z,9.20
2023-02-23T01:59:51.102Z,9.20
2023-02-23T02:02:24.404Z,9.20
2023-02-23T02:04:52.468Z,9.20
2023-02-23T02:07:19.431Z,9.20
2023-02-23T02:10:07.686Z,9.20
2023-02-23T02:12:34.941Z,9.20
2023-02-23T02:15:04.905Z,9.20
2023-02-23T02:18:01.109Z,9.10
2023-02-23T02:20:52.781Z,9.20
2023-02-23T02:23:27.671Z,9.20
2023-02-23T02:26:24.350Z,9.20
2023-02-23T02:29:28.842Z,9.20
2023-02-23T02:32:11.143Z,9.20
2023-02-23T02:35:02.543Z,9.20
2023-02-23T02:38:04.575Z,9.20
2023-02-23T02:40:56.046Z,9.20
2023-02-23T02:43:52.176Z,9.20
2023-02-23T02:46:24.779Z,9.20
2023-02-23T02:49:06.691Z,9.20
2023-02-23T02:51:54.046Z,9.20
2023-02-23T02:54:32.472Z,9.20
2023-02-23T02:57:04.470Z,9.20
2023-02-23T02:59:50.177Z,9.20
2023-02-23T03:02:39.537Z,9.20
2023-02-23T03:05:37.617Z,9.20
2023-02-23T03:08:34.997Z,9.20
2023-02-23T03:11:32.936Z,9.20
2023-02-23T03:14:36.534Z,9.20
2023-02-23T03:17:40.748Z,9.20
2023-02-23T03:21:07.264Z,9.20
2023-02-23T03:24:20.566Z,9.20
2023-02-23T03:27:12.478Z,9.20
2023-02-23T03:30:09.976Z,9.20
2023-02-23T03:33:24.829Z,9.20
2023-02-23T03:36:34.337Z,9.20
2023-02-23T03:39:40.973Z,9.20
2023-02-23T03:42:31.723Z,9.20
2023-02-23T03:45:20.717Z,9.20
2023-02-23T03:48:06.710Z,9.20
2023-02-23T03:51:13.882Z,9.20
2023-02-23T03:54:25.808Z,9.20
2023-02-23T03:57:13.328Z,9.20
2023-02-23T04:00:05.828Z,9.20
2023-02-23T04:02:54.141Z,9.20
2023-02-23T04:05:41.330Z,9.30
2023-02-23T04:08:30.649Z,9.30
2023-02-23T04:11:34.955Z,9.30
2023-02-23T04:14:07.545Z,9.30
2023-02-23T04:16:35.892Z,9.30
2023-02-23T04:19:02.892Z,9.30
2023-02-23T04:21:29.837Z,9.30
2023-02-23T04:23:56.718Z,9.30
2023-02-23T04:26:23.654Z,9.30
2023-02-23T04:28:50.584Z,9.30
2023-02-23T04:31:19.035Z,9.30
2023-02-23T04:33:46.086Z,9.30
2023-02-23T04:36:13.038Z,9.30
2023-02-23T04:38:39.926Z,9.30
2023-02-23T04:41:06.876Z,9.30
2023-02-23T04:43:33.813Z,9.20
2023-02-23T04:46:00.748Z,9.30
2023-02-23T04:48:28.031Z,9.30
2023-02-23T04:50:55.424Z,9.20
2023-02-23T04:53:22.327Z,9.20
2023-02-23T04:55:49.293Z,9.20
2023-02-23T04:58:16.300Z,9.20
2023-02-23T05:00:43.335Z,9.20
2023-02-23T05:03:10.827Z,9.20
2023-02-23T05:05:38.240Z,9.20
2023-02-23T05:08:05.435Z,9.20
2023-02-23T05:10:33.274Z,9.20
2023-02-23T05:13:01.301Z,9.20
2023-02-23T05:15:28.689Z,9.20
2023-02-23T05:17:56.117Z,9.20
2023-02-23T05:20:23.231Z,9.20
2023-02-23T05:22:50.119Z,9.20
2023-02-23T05:25:17.182Z,9.20
2023-02-23T05:27:44.126Z,9.20
2023-02-23T05:30:11.592Z,9.20
2023-02-23T05:32:38.474Z,9.20
2023-02-23T05:35:05.821Z,9.20
2023-02-23T05:37:33.880Z,9.20
2023-02-23T05:40:00.824Z,9.20
2023-02-23T05:42:27.857Z,9.20
2023-02-23T05:44:55.011Z,9.20
2023-02-23T05:47:22.001Z,9.30
2023-02-23T05:49:49.243Z,9.30
2023-02-23T05:52:16.164Z,9.20
2023-02-23T05:54:43.112Z,9.30
2023-02-23T05:57:10.008Z,9.30
2023-02-23T05:59:36.922Z,9.20
2023-02-23T06:02:06.244Z,9.30
2023-02-23T06:04:33.461Z,9.30
2023-02-23T06:07:00.506Z,9.20
2023-02-23T06:09:27.478Z,9.20
2023-02-23T06:11:54.410Z,9.20
2023-02-23T06:14:21.313Z,9.20
2023-02-23T06:16:48.928Z,9.20
2023-02-23T06:19:15.934Z,9.20
2023-02-23T06:21:42.888Z,9.20
2023-02-23T06:24:10.401Z,9.20
2023-02-23T06:26:37.366Z,9.20
2023-02-23T06:29:04.264Z,9.20
2023-02-23T06:31:32.175Z,9.20
2023-02-23T06:33:59.206Z,9.20
2023-02-23T06:36:26.167Z,9.20
2023-02-23T06:38:56.874Z,9.20
2023-02-23T06:41:24.273Z,9.20
2023-02-23T06:43:52.023Z,9.20
2023-02-23T06:46:20.179Z,9.20
2023-02-23T06:48:47.159Z,9.20
2023-02-23T06:51:14.435Z,9.20
2023-02-23T06:53:41.384Z,9.20
2023-02-23T06:56:08.499Z,9.20
2023-02-23T06:58:35.425Z,9.20
2023-02-23T07:01:02.520Z,9.20
2023-02-23T07:03:29.477Z,9.20
2023-02-23T07:05:56.457Z,9.20
2023-02-23T07:08:23.535Z,9.20
2023-02-23T07:10:50.479Z,9.20
2023-02-23T07:13:17.473Z,9.20
2023-02-23T07:15:44.433Z,9.20
2023-02-23T07:18:11.355Z,9.20
2023-02-23T07:20:38.330Z,9.20
2023-02-23T07:23:05.189Z,9.20
2023-02-23T07:25:32.126Z,9.20
2023-02-23T07:27:59.286Z,9.20
2023-02-23T07:30:26.445Z,9.20
2023-02-23T07:32:53.921Z,9.20
2023-02-23T07:35:20.965Z,9.10
2023-02-23T07:37:47.870Z,9.10
2023-02-23T07:40:15.244Z,9.10
2023-02-23T07:42:42.097Z,9.00
2023-02-23T07:45:10.046Z,9.00
2023-02-23T07:47:37.721Z,9.00
2023-02-23T07:50:09.791Z,9.00
2023-02-23T07:52:38.160Z,8.90
2023-02-23T07:55:09.369Z,8.90
2023-02-23T07:57:36.410Z,8.90
2023-02-23T08:00:04.462Z,9.00
2023-02-23T08:02:33.077Z,8.90
2023-02-23T08:04:59.976Z,8.90
2023-02-23T08:07:26.962Z,9.00
2023-02-23T08:09:54.030Z,9.00
2023-02-23T08:12:20.994Z,9.00
2023-02-23T08:14:48.001Z,9.00
2023-02-23T08:17:14.980Z,9.10
2023-02-23T08:19:42.054Z,9.10
2023-02-23T08:22:10.186Z,9.20
2023-02-23T08:24:38.098Z,9.20
2023-02-23T08:27:05.107Z,9.30
2023-02-23T08:29:32.107Z,9.40
2023-02-23T08:32:02.856Z,9.40
2023-02-23T08:34:29.866Z,9.40
2023-02-23T08:36:57.876Z,9.40
2023-02-23T08:39:25.965Z,9.40
2023-02-23T08:41:55.712Z,9.40
2023-02-23T08:44:22.927Z,9.40
2023-02-23T08:46:49.931Z,9.30
2023-02-23T08:49:17.434Z,9.30
2023-02-23T08:51:47.512Z,9.30
2023-02-23T08:54:16.324Z,9.20
2023-02-23T08:56:43.910Z,9.20
2023-02-23T08:59:13.992Z,9.30
2023-02-23T09:01:44.175Z,9.20
2023-02-23T09:04:11.136Z,9.30
2023-02-23T09:06:41.527Z,9.30
2023-02-23T09:09:10.854Z,9.30
2023-02-23T09:11:44.221Z,9.40
2023-02-23T09:14:11.136Z,9.40
2023-02-23T09:16:40.126Z,9.50
2023-02-23T09:19:10.205Z,9.50
2023-02-23T09:21:38.164Z,9.50
2023-02-23T09:24:05.441Z,9.60
2023-02-23T09:26:34.005Z,9.70
2023-02-23T09:29:01.960Z,9.70
2023-02-23T09:31:32.307Z,9.70
2023-02-23T09:34:01.804Z,9.80
2023-02-23T09:36:32.007Z,9.80
2023-02-23T09:39:02.979Z,9.90
2023-02-23T09:41:49.445Z,9.90
2023-02-23T09:44:57.982Z,9.90
2023-02-23T09:47:32.722Z,9.90
2023-02-23T09:50:06.643Z,9.90
2023-02-23T09:52:41.503Z,9.90
2023-02-23T09:55:13.909Z,10.00
2023-02-23T09:57:49.354Z,10.10
2023-02-23T10:00:27.829Z,10.10
2023-02-23T10:03:10.935Z,10.00
2023-02-23T10:05:47.972Z,9.90
2023-02-23T10:08:48.702Z,9.70
2023-02-23T10:11:25.326Z,9.60
2023-02-23T10:14:02.713Z,9.60
2023-02-23T10:16:49.858Z,9.60
2023-02-23T10:19:41.722Z,9.80
2023-02-23T10:22:13.190Z,9.90
2023-02-23T10:24:45.176Z,10.00
2023-02-23T10:27:21.233Z,10.10
2023-02-23T10:30:02.860Z,10.10
2023-02-23T10:32:49.184Z,10.10
2023-02-23T10:35:19.944Z,10.00
2023-02-23T10:37:52.938Z,10.10
2023-02-23T10:40:24.466Z,10.00
2023-02-23T10:42:58.579Z,9.90
2023-02-23T10:45:29.756Z,10.00
2023-02-23T10:48:21.768Z,9.90
2023-02-23T10:51:02.826Z,9.90
2023-02-23T10:53:35.985Z,10.00
2023-02-23T10:56:17.846Z,10.10
2023-02-23T10:58:56.784Z,10.10
2023-02-23T11:01:36.308Z,10.10
2023-02-23T11:04:27.652Z,10.10
2023-02-23T11:07:24.271Z,10.20
2023-02-23T11:09:53.248Z,10.30
2023-02-23T11:12:26.369Z,10.20
2023-02-23T11:14:59.405Z,10.10
2023-02-23T11:17:38.362Z,10.10
2023-02-23T11:20:23.022Z,10.10
2023-02-23T11:22:52.348Z,10.10
2023-02-23T11:25:30.562Z,10.10
2023-02-23T11:27:59.336Z,10.10
2023-02-23T11:30:43.040Z,10.10
2023-02-23T11:33:21.563Z,9.90
2023-02-23T11:35:48.564Z,9.80
2023-02-23T11:38:22.532Z,9.70
2023-02-23T11:41:17.608Z,9.60
2023-02-23T11:43:57.847Z,9.50
2023-02-23T11:46:29.611Z,9.50
2023-02-23T11:49:14.482Z,9.60
2023-02-23T11:51:49.270Z,9.60
2023-02-23T11:54:38.587Z,9.60
2023-02-23T11:57:07.741Z,9.60
2023-02-23T11:59:40.282Z,9.60
2023-02-23T12:02:23.264Z,9.70
2023-02-23T12:05:38.390Z,9.80
2023-02-23T12:08:17.582Z,10.10
2023-02-23T12:11:07.435Z,10.20
2023-02-23T12:13:45.975Z,10.30
2023-02-23T12:16:26.464Z,10.40
2023-02-23T12:19:27.015Z,10.50
2023-02-23T12:22:16.477Z,10.60
2023-02-23T12:24:53.519Z,10.70
2023-02-23T12:27:50.650Z,10.80
2023-02-23T12:30:39.718Z,11.10
2023-02-23T12:33:34.049Z,11.40
2023-02-23T12:36:22.700Z,11.50
2023-02-23T12:39:17.975Z,11.40
2023-02-23T12:42:22.409Z,11.50
2023-02-23T12:44:54.566Z,11.80
2023-02-23T12:48:09.047Z,12.20
2023-02-23T12:50:51.021Z,12.50
2023-02-23T12:53:42.935Z,13.00
2023-02-23T12:56:33.437Z,13.40
2023-02-23T12:59:06.921Z,14.00
2023-02-23T13:01:50.305Z,14.30
2023-02-23T13:04:44.462Z,14.60
2023-02-23T13:07:17.309Z,14.70
2023-02-23T13:09:55.739Z,14.70
2023-02-23T13:12:51.342Z,14.60
2023-02-23T13:15:52.465Z,14.50
2023-02-23T13:19:10.885Z,14.50
2023-02-23T13:22:06.003Z,14.40
2023-02-23T13:24:43.605Z,14.40
2023-02-23T13:27:21.714Z,14.30
2023-02-23T13:29:55.414Z,14.20
2023-02-23T13:32:32.568Z,14.10
2023-02-23T13:35:14.743Z,14.00
2023-02-23T13:37:53.659Z,13.90
2023-02-23T13:40:32.301Z,13.70
2023-02-23T13:43:30.131Z,13.50
2023-02-23T13:46:17.637Z,13.30
2023-02-23T13:49:05.033Z,13.00
2023-02-23T13:51:56.014Z,12.70
2023-02-23T13:54:31.559Z,12.60
2023-02-23T13:57:18.373Z,12.50
2023-02-23T13:59:46.876Z,12.50
2023-02-23T14:02:23.953Z,12.50
2023-02-23T14:04:57.666Z,12.50
2023-02-23T14:07:30.000Z,12.50
2023-02-23T14:10:04.055Z,12.60
2023-02-23T14:12:39.924Z,12.70
2023-02-23T14:15:25.520Z,12.80
2023-02-23T14:18:02.418Z,13.00
2023-02-23T14:20:55.452Z,13.10
2023-02-23T14:23:29.179Z,13.30
2023-02-23T14:26:18.894Z,13.40
2023-02-23T14:29:20.146Z,13.40
2023-02-23T14:32:01.329Z,13.50
2023-02-23T14:34:49.299Z,13.50
2023-02-23T14:37:36.374Z,13.50
2023-02-23T14:40:17.223Z,13.50
2023-02-23T14:42:50.976Z,13.60
2023-02-23T14:45:29.660Z,13.50
2023-02-23T14:48:05.758Z,13.40
2023-02-23T14:50:39.158Z,13.30
2023-02-23T14:53:18.686Z,13.10
2023-02-23T14:55:49.876Z,12.90
2023-02-23T14:58:33.528Z,12.80
2023-02-23T15:01:00.450Z,12.70
2023-02-23T15:03:30.699Z,12.70
2023-02-23T15:06:00.336Z,12.70
2023-02-23T15:08:30.072Z,12.70
2023-02-23T15:11:04.318Z,12.60
2023-02-23T15:13:34.168Z,12.50
2023-02-23T15:16:06.715Z,12.40
2023-02-23T15:18:44.936Z,12.30
2023-02-23T15:21:22.787Z,12.10
2023-02-23T15:23:58.702Z,12.00
2023-02-23T15:26:38.076Z,11.90
2023-02-23T15:29:17.240Z,11.60
2023-02-23T15:31:55.372Z,11.40
2023-02-23T15:34:26.637Z,11.20
2023-02-23T15:37:04.713Z,11.10
2023-02-23T15:39:53.426Z,11.10
2023-02-23T15:42:36.514Z,11.00
2023-02-23T15:45:30.336Z,11.00
2023-02-23T15:48:00.181Z,11.00
2023-02-23T15:50:36.980Z,10.90
2023-02-23T15:53:29.098Z,10.90
2023-02-23T15:56:02.993Z,10.80
2023-02-23T15:58:51.015Z,10.60
2023-02-23T16:01:25.693Z,10.50
2023-02-23T16:04:09.505Z,10.40
2023-02-23T16:06:52.062Z,10.30
2023-02-23T16:09:23.564Z,10.30
2023-02-23T16:12:04.742Z,10.20
2023-02-23T16:14:46.912Z,10.20
2023-02-23T16:17:26.916Z,10.10
2023-02-23T16:20:17.268Z,10.00
2023-02-23T16:22:48.034Z,9.90
2023-02-23T16:25:21.041Z,9.90
2023-02-23T16:27:56.463Z,9.80
2023-02-23T16:30:34.375Z,9.70
2023-02-23T16:33:07.766Z,9.70
2023-02-23T16:35:46.803Z,9.60
2023-02-23T16:38:24.770Z,9.60
2023-02-23T16:40:51.941Z,9.50
2023-02-23T16:43:20.108Z,9.50
2023-02-23T16:45:49.389Z,9.40
2023-02-23T16:48:18.968Z,9.40
2023-02-23T16:50:49.503Z,9.30
2023-02-23T16:53:17.208Z,9.30
2023-02-23T16:55:52.040Z,9.20
2023-02-23T16:58:23.474Z,9.10
2023-02-23T17:00:51.961Z,9.00
2023-02-23T17:03:26.850Z,9.00
2023-02-23T17:05:54.539Z,9.00
2023-02-23T17:08:22.775Z,9.00
2023-02-23T17:10:54.659Z,9.00
2023-02-23T17:13:27.198Z,8.90
2023-02-23T17:15:56.549Z,9.00
2023-02-23T17:18:26.165Z,9.00
2023-02-23T17:20:56.137Z,8.90
2023-02-23T17:23:28.707Z,8.90
2023-02-23T17:25:59.027Z,8.90
2023-02-23T17:28:27.957Z,8.80
2023-02-23T17:30:58.005Z,8.80
2023-02-23T17:33:25.357Z,8.70
2023-02-23T17:35:52.214Z,8.70
2023-02-23T17:38:21.734Z,8.70
2023-02-23T17:40:50.166Z,8.60
2023-02-23T17:43:17.174Z,8.60
2023-02-23T17:45:48.230Z,8.60
2023-02-23T17:48:17.393Z,8.60
2023-02-23T17:50:47.626Z,8.60
2023-02-23T17:53:20.578Z,8.60
2023-02-23T17:55:48.487Z,8.60
2023-02-23T17:58:15.420Z,8.50
2023-02-23T18:00:42.427Z,8.50
2023-02-23T18:03:10.794Z,8.50
2023-02-23T18:05:37.841Z,8.50
2023-02-23T18:08:07.897Z,8.50
2023-02-23T18:10:37.798Z,8.40
2023-02-23T18:13:05.868Z,8.40
2023-02-23T18:15:33.943Z,8.40
2023-02-23T18:18:01.375Z,8.40
2023-02-23T18:20:34.559Z,8.30
2023-02-23T18:23:03.541Z,8.30
2023-02-23T18:25:31.007Z,8.20
2023-02-23T18:28:00.296Z,8.20
2023-02-23T18:30:28.305Z,8.20
2023-02-23T18:33:00.825Z,8.20
2023-02-23T18:35:28.232Z,8.20
2023-02-23T18:37:56.222Z,8.20
2023-02-23T18:40:29.403Z,8.20
2023-02-23T18:42:59.688Z,8.20
2023-02-23T18:45:27.445Z,8.20
2023-02-23T18:47:57.673Z,8.20
2023-02-23T18:50:26.550Z,8.20
2023-02-23T18:52:58.164Z,8.20
2023-02-23T18:55:28.655Z,8.20
2023-02-23T18:57:57.725Z,8.20
2023-02-23T19:00:24.790Z,8.20
2023-02-23T19:02:55.015Z,8.20
2023-02-23T19:05:22.380Z,8.20
2023-02-23T19:07:49.356Z,8.10
2023-02-23T19:10:16.497Z,8.10
2023-02-23T19:12:44.553Z,8.10
2023-02-23T19:15:12.425Z,8.10
2023-02-23T19:17:39.689Z,8.10
2023-02-23T19:20:13.996Z,8.10
2023-02-23T19:22:42.055Z,8.00
2023-02-23T19:25:11.802Z,8.10
2023-02-23T19:27:39.158Z,8.00
2023-02-23T19:30:10.290Z,8.00
2023-02-23T19:32:40.046Z,8.00
2023-02-23T19:35:11.030Z,8.00
2023-02-23T19:37:40.360Z,8.00
2023-02-23T19:40:08.147Z,7.90
2023-02-23T19:42:36.964Z,7.90
2023-02-23T19:45:04.364Z,7.90
2023-02-23T19:47:31.451Z,7.90
2023-02-23T19:49:58.443Z,7.90
2023-02-23T19:52:28.907Z,7.90
2023-02-23T19:54:55.885Z,7.90
2023-02-23T19:57:23.509Z,7.90
2023-02-23T19:59:50.508Z,7.80
2023-02-23T20:02:18.478Z,7.90
2023-02-23T20:04:49.115Z,7.90
2023-02-23T20:07:17.246Z,7.90
2023-02-23T20:09:44.864Z,7.90
2023-02-23T20:12:11.816Z,7.90
2023-02-23T20:14:40.266Z,7.90
2023-02-23T20:17:09.251Z,7.80
2023-02-23T20:19:36.202Z,7.90
2023-02-23T20:22:03.188Z,7.90
2023-02-23T20:24:30.240Z,7.90
2023-02-23T20:26:59.314Z,7.90
2023-02-23T20:29:28.140Z,7.90
2023-02-23T20:31:55.212Z,7.90
2023-02-23T20:34:24.600Z,7.90
2023-02-23T20:36:52.104Z,7.90
2023-02-23T20:39:19.253Z,7.90
2023-02-23T20:41:47.964Z,7.90
2023-02-23T20:44:16.128Z,7.90
2023-02-23T20:46:44.746Z,7.90
2023-02-23T20:49:18.470Z,7.90
2023-02-23T20:51:47.244Z,7.90
2023-02-23T20:54:15.462Z,7.90
2023-02-23T20:56:43.324Z,7.90
2023-02-23T20:59:13.495Z,7.80
2023-02-23T21:01:42.786Z,7.80
2023-02-23T21:04:09.980Z,7.80
2023-02-23T21:06:37.023Z,7.80
2023-02-23T21:09:10.985Z,7.80
2023-02-23T21:11:37.983Z,7.80
2023-02-23T21:14:08.399Z,7.80
2023-02-23T21:16:36.186Z,7.80
2023-02-23T21:19:06.373Z,7.80
2023-02-23T21:21:43.440Z,7.80
2023-02-23T21:24:11.330Z,7.80
2023-02-23T21:26:38.357Z,7.80
2023-02-23T21:29:10.356Z,7.80
2023-02-23T21:31:39.263Z,7.80
2023-02-23T21:34:07.234Z,7.80
2023-02-23T21:36:35.012Z,7.80
2023-02-23T21:39:02.086Z,7.70
2023-02-23T21:41:33.851Z,7.80
2023-02-23T21:44:08.716Z,7.70
2023-02-23T21:46:36.720Z,7.70
2023-02-23T21:49:07.292Z,7.70
2023-02-23T21:51:34.796Z,7.70
2023-02-23T21:54:01.887Z,7.70
2023-02-23T21:56:29.653Z,7.70
2023-02-23T21:58:56.928Z,7.70
2023-02-23T22:01:29.730Z,7.70
2023-02-23T22:03:57.636Z,7.70
2023-02-23T22:06:27.369Z,7.70
2023-02-23T22:08:54.333Z,7.70
2023-02-23T22:11:26.506Z,7.70
2023-02-23T22:13:59.686Z,7.70
2023-02-23T22:16:29.891Z,7.70
2023-02-23T22:18:57.598Z,7.70
2023-02-23T22:21:24.939Z,7.70
2023-02-23T22:23:53.470Z,7.70
2023-02-23T22:26:20.380Z,7.70
2023-02-23T22:28:47.340Z,7.70
2023-02-23T22:31:15.684Z,7.70
2023-02-23T22:33:43.924Z,7.70
2023-02-23T22:36:13.422Z,7.70
2023-02-23T22:38:41.680Z,7.70
2023-02-23T22:41:13.095Z,7.70
2023-02-23T22:43:42.473Z,7.60
2023-02-23T22:46:09.676Z,7.60
2023-02-23T22:48:36.757Z,7.60
2023-02-23T22:51:04.200Z,7.60
2023-02-23T22:53:32.032Z,7.60
2023-02-23T22:55:59.911Z,7.70
2023-02-23T22:58:26.814Z,7.70
2023-02-23T23:01:04.918Z,7.70
2023-02-23T23:03:36.916Z,7.70
2023-02-23T23:06:11.424Z,7.70
2023-02-23T23:08:41.206Z,7.60
2023-02-23T23:11:13.743Z,7.60
2023-02-23T23:13:44.698Z,7.60
2023-02-23T23:16:25.608Z,7.60
2023-02-23T23:19:04.060Z,7.60
2023-02-23T23:21:33.700Z,7.60
2023-02-23T23:24:06.047Z,7.60
2023-02-23T23:26:35.750Z,7.60
2023-02-23T23:29:04.847Z,7.60
2023-02-23T23:31:35.137Z,7.50
2023-02-23T23:34:09.470Z,7.50
2023-02-23T23:36:49.403Z,7.50
2023-02-23T23:39:18.482Z,7.50
2023-02-23T23:41:48.083Z,7.50
2023-02-23T23:44:17.775Z,7.50
2023-02-23T23:46:46.352Z,7.50
2023-02-23T23:49:19.998Z,7.50
2023-02-23T23:51:50.962Z,7.50
2023-02-23T23:54:21.702Z,7.50
2023-02-23T23:56:49.936Z,7.50
2023-02-23T23:59:20.529Z,7.50
